Time;durP1;ratioP1;P1;durP2;ratioP2;P2;SDS_P1;SDS_P2;PMS_P1;PMS_P2;Temp;Humidity;BMP_temperature;BMP_pressure;BME280_temperature;BME280_humidity;BME280_pressure;Samples;Min_cycle;Max_cycle;Signal;HPM_P1;HPM_P2
2021/11/15 00:02:09;;;;;;;1.52;0.77;;;6.20;99.90;;;;;;5070513;28;20196;-78
2021/11/15 00:04:36;;;;;;;0.43;0.43;;;6.20;99.90;;;;;;5071877;28;20217;-77
2021/11/15 00:07:02;;;;;;;0.30;0.30;;;6.10;99.90;;;;;;5070659;28;20217;-77
2021/11/15 00:09:29;;;;;;;3.13;2.95;;;6.10;99.90;;;;;;5052833;28;20229;-77
2021/11/15 00:11:55;;;;;;;0.08;0.08;;;6.20;99.90;;;;;;5050422;28;20243;-77
2021/11/15 00:14:21;;;;;;;3.55;2.65;;;6.20;99.90;;;;;;5051632;28;20162;-78
2021/11/15 00:16:48;;;;;;;0.30;0.30;;;6.20;99.90;;;;;;5051626;28;20680;-77
2021/11/15 00:19:14;;;;;;;8.32;3.13;;;6.20;99.90;;;;;;5050846;28;20204;-80
2021/11/15 00:21:41;;;;;;;1.98;1.88;;;6.10;99.90;;;;;;5058592;28;20169;-80
2021/11/15 00:24:07;;;;;;;0.57;0.57;;;6.10;99.90;;;;;;5050275;28;20629;-79
2021/11/15 00:26:33;;;;;;;0.40;0.40;;;6.20;99.90;;;;;;5061902;28;20225;-79
2021/11/15 00:28:59;;;;;;;2.42;2.33;;;6.20;99.90;;;;;;5068218;28;20200;-79
2021/11/15 00:31:26;;;;;;;1.38;1.38;;;6.10;99.90;;;;;;5058792;28;20219;-79
2021/11/15 00:33:53;;;;;;;21.80;2.35;;;6.10;99.90;;;;;;5062899;28;20165;-79
2021/11/15 00:36:19;;;;;;;2.60;1.33;;;6.10;99.90;;;;;;5051219;28;20160;-79
2021/11/15 00:38:46;;;;;;;1.63;1.52;;;6.10;99.90;;;;;;5061993;28;20179;-79
2021/11/15 00:41:12;;;;;;;0.77;0.77;;;6.10;99.90;;;;;;5069279;28;20203;-79
2021/11/15 00:43:38;;;;;;;0.13;0.13;;;6.20;99.90;;;;;;5061567;28;20249;-79
2021/11/15 00:46:04;;;;;;;1.35;0.95;;;6.10;99.90;;;;;;5053030;28;20216;-79
2021/11/15 00:48:30;;;;;;;0.70;0.70;;;6.10;99.90;;;;;;5069768;28;20172;-79
2021/11/15 00:50:57;;;;;;;0.20;0.20;;;6.20;99.90;;;;;;5069055;28;20196;-79
2021/11/15 00:53:26;;;;;;;0.10;0.10;;;6.10;99.90;;;;;;5069693;28;20232;-79
2021/11/15 00:55:51;;;;;;;0.55;0.55;;;6.10;99.90;;;;;;5069376;28;20304;-79
2021/11/15 00:58:21;;;;;;;1.08;1.08;;;6.10;99.90;;;;;;5069492;28;20649;-79
2021/11/15 01:00:47;;;;;;;2.72;2.53;;;6.10;99.90;;;;;;5069165;28;20227;-78
2021/11/15 01:03:14;;;;;;;0.20;0.20;;;6.10;99.90;;;;;;5066183;28;20193;-80
2021/11/15 01:05:47;;;;;;;0.10;0.10;;;6.20;99.90;;;;;;5050671;28;20201;-79
2021/11/15 01:08:16;;;;;;;0.75;0.75;;;6.10;99.90;;;;;;5050621;28;20646;-76
2021/11/15 01:10:42;;;;;;;0.45;0.45;;;6.20;99.90;;;;;;5049261;28;20196;-77
2021/11/15 01:13:08;;;;;;;0.82;0.82;;;6.10;99.90;;;;;;5049926;28;20158;-77
2021/11/15 01:15:35;;;;;;;1.05;1.05;;;6.10;99.90;;;;;;5050517;28;20168;-77
2021/11/15 01:18:01;;;;;;;0.00;0.00;;;6.10;99.90;;;;;;5049143;28;20241;-77
2021/11/15 01:20:31;;;;;;;1.15;0.43;;;6.10;99.90;;;;;;5049028;28;20197;-77
2021/11/15 01:22:57;;;;;;;0.10;0.10;;;6.10;99.90;;;;;;5048546;28;20208;-76
2021/11/15 01:25:24;;;;;;;0.20;0.20;;;6.10;99.90;;;;;;5050372;28;20164;-78
2021/11/15 01:27:49;;;;;;;2.63;2.13;;;6.10;99.90;;;;;;5048959;28;20175;-77
2021/11/15 01:30:18;;;;;;;0.68;0.68;;;6.10;99.90;;;;;;5061095;28;20220;-78
2021/11/15 01:32:45;;;;;;;30.42;2.90;;;6.10;99.90;;;;;;5069525;28;20157;-79
2021/11/15 01:35:11;;;;;;;0.05;0.05;;;6.20;99.90;;;;;;5069963;28;20236;-77
2021/11/15 01:37:38;;;;;;;0.73;0.73;;;6.10;99.90;;;;;;5068653;28;20181;-80
2021/11/15 01:40:07;;;;;;;0.20;0.20;;;6.10;99.90;;;;;;5068665;28;20211;-80
2021/11/15 01:42:33;;;;;;;1.10;1.10;;;6.10;99.90;;;;;;5069835;28;20211;-79
2021/11/15 01:44:59;;;;;;;1.33;1.05;;;6.10;99.90;;;;;;5068142;28;20169;-80
2021/11/15 01:47:25;;;;;;;0.10;0.10;;;6.10;99.90;;;;;;5069969;28;20220;-79
2021/11/15 01:49:51;;;;;;;0.10;0.10;;;6.10;99.90;;;;;;5069683;28;20252;-79
2021/11/15 01:52:18;;;;;;;0.90;0.90;;;6.10;99.90;;;;;;5068395;28;20172;-80
2021/11/15 01:54:44;;;;;;;0.45;0.45;;;6.10;99.90;;;;;;5068733;28;20225;-77
2021/11/15 01:57:12;;;;;;;0.75;0.75;;;6.10;99.90;;;;;;5069514;28;20231;-77
2021/11/15 01:59:39;;;;;;;0.68;0.68;;;6.10;99.90;;;;;;5069467;28;20207;-78
2021/11/15 02:02:05;;;;;;;0.10;0.10;;;6.10;99.90;;;;;;5069590;28;20219;-77
2021/11/15 02:04:32;;;;;;;1.50;1.40;;;6.10;99.90;;;;;;5068266;28;20196;-77
2021/11/15 02:06:58;;;;;;;0.30;0.30;;;6.10;99.90;;;;;;5069534;28;20216;-77
2021/11/15 02:09:24;;;;;;;0.63;0.63;;;6.10;99.90;;;;;;5068105;28;20188;-77
2021/11/15 02:11:51;;;;;;;1.52;1.42;;;6.10;99.90;;;;;;5069466;28;20164;-78
2021/11/15 02:14:17;;;;;;;3.58;2.40;;;6.10;99.90;;;;;;5069454;28;20165;-77
2021/11/15 02:16:42;;;;;;;0.30;0.30;;;6.10;99.90;;;;;;5069498;28;20184;-78
2021/11/15 02:19:08;;;;;;;1.00;1.00;;;6.00;99.90;;;;;;5069517;28;20165;-77
2021/11/15 02:21:37;;;;;;;0.10;0.10;;;6.10;99.90;;;;;;5068017;28;20271;-76
2021/11/15 02:24:03;;;;;;;0.10;0.10;;;6.10;99.90;;;;;;5068025;28;20307;-76
2021/11/15 02:26:28;;;;;;;0.55;0.55;;;6.10;99.90;;;;;;5068080;28;20165;-78
2021/11/15 02:28:55;;;;;;;1.02;1.00;;;6.10;99.90;;;;;;5069265;28;20181;-78
2021/11/15 02:31:28;;;;;;;0.30;0.30;;;6.10;99.90;;;;;;5055672;28;20201;-78
2021/11/15 02:33:56;;;;;;;0.05;0.05;;;6.20;99.90;;;;;;5047973;28;20169;-77
2021/11/15 02:36:25;;;;;;;0.10;0.10;;;6.20;99.90;;;;;;5047796;28;20227;-78
2021/11/15 02:38:52;;;;;;;0.03;0.03;;;6.20;99.90;;;;;;5064293;28;20176;-79
2021/11/15 02:41:23;;;;;;;0.50;0.50;;;6.20;99.90;;;;;;5069050;28;20207;-77
2021/11/15 02:43:50;;;;;;;0.30;0.30;;;6.10;99.90;;;;;;5067734;28;20196;-77
2021/11/15 02:46:16;;;;;;;1.10;1.10;;;6.10;99.90;;;;;;5067795;28;20173;-77
2021/11/15 02:48:43;;;;;;;0.17;0.17;;;6.20;99.90;;;;;;5069026;28;20187;-78
2021/11/15 02:51:10;;;;;;;0.40;0.40;;;6.10;99.90;;;;;;5067488;28;20198;-79
2021/11/15 02:53:37;;;;;;;1.08;1.08;;;6.10;99.90;;;;;;5067579;28;20172;-78
2021/11/15 02:56:05;;;;;;;0.10;0.10;;;6.10;99.90;;;;;;5067345;28;20220;-79
2021/11/15 02:58:31;;;;;;;0.20;0.20;;;6.10;99.90;;;;;;5067393;28;20206;-79
2021/11/15 03:01:10;;;;;;;2.83;1.38;;;6.10;99.90;;;;;;5067427;28;20254;-78
2021/11/15 03:03:37;;;;;;;0.10;0.10;;;6.10;99.90;;;;;;5068634;28;20185;-78
2021/11/15 03:06:03;;;;;;;0.57;0.57;;;6.10;99.90;;;;;;5068422;28;20168;-78
2021/11/15 03:08:30;;;;;;;0.30;0.30;;;6.10;99.90;;;;;;5072673;28;20167;-78
2021/11/15 03:10:59;;;;;;;4.80;3.10;;;6.20;99.90;;;;;;5072734;28;20199;-78
2021/11/15 03:13:32;;;;;;;4.07;3.47;;;6.30;99.90;;;;;;5072582;28;20157;-78
2021/11/15 03:15:58;;;;;;;0.63;0.63;;;6.30;99.90;;;;;;5072676;28;20224;-79
2021/11/15 03:18:33;;;;;;;1.30;0.65;;;6.30;99.90;;;;;;5071537;28;20199;-78
2021/11/15 03:21:04;;;;;;;1.80;0.88;;;6.30;99.90;;;;;;5071278;28;20196;-77
2021/11/15 03:23:33;;;;;;;0.43;0.43;;;6.30;99.90;;;;;;5072495;28;20192;-78
2021/11/15 03:26:00;;;;;;;1.55;0.85;;;6.30;99.90;;;;;;5072460;28;20161;-78
2021/11/15 03:28:29;;;;;;;0.77;0.77;;;6.20;99.90;;;;;;5071099;28;20202;-78
2021/11/15 03:31:02;;;;;;;0.10;0.10;;;6.20;99.90;;;;;;5070953;28;20200;-79
2021/11/15 03:33:30;;;;;;;0.25;0.25;;;6.10;99.90;;;;;;5072390;28;20164;-79
2021/11/15 03:35:57;;;;;;;0.30;0.30;;;6.10;99.90;;;;;;5070951;28;20169;-79
2021/11/15 03:38:23;;;;;;;0.25;0.25;;;6.20;99.90;;;;;;5070977;28;20198;-79
2021/11/15 03:40:49;;;;;;;0.10;0.10;;;6.10;99.90;;;;;;5072157;28;20285;-79
2021/11/15 03:43:15;;;;;;;0.10;0.10;;;6.10;99.90;;;;;;5072056;28;20184;-79
2021/11/15 03:45:42;;;;;;;0.20;0.20;;;6.10;99.90;;;;;;5070789;28;20232;-80
2021/11/15 03:48:10;;;;;;;0.40;0.40;;;6.10;99.90;;;;;;5070689;28;20165;-79
2021/11/15 03:50:37;;;;;;;0.40;0.40;;;6.10;99.90;;;;;;5071903;28;20674;-79
2021/11/15 03:53:06;;;;;;;1.05;1.05;;;6.10;99.90;;;;;;5070534;28;20211;-79
2021/11/15 03:55:32;;;;;;;0.20;0.20;;;6.10;99.90;;;;;;5070182;28;20220;-79
2021/11/15 03:57:58;;;;;;;0.70;0.65;;;6.10;99.90;;;;;;5071784;28;20165;-79
2021/11/15 04:00:30;;;;;;;2.60;0.85;;;6.10;99.90;;;;;;5071544;28;20200;-78
2021/11/15 04:03:02;;;;;;;1.55;1.45;;;6.10;99.90;;;;;;5070306;28;20200;-79
2021/11/15 04:05:32;;;;;;;0.25;0.25;;;6.10;99.90;;;;;;5070387;28;20168;-79
2021/11/15 04:08:00;;;;;;;0.30;0.30;;;6.10;99.90;;;;;;5070048;28;20157;-78
2021/11/15 04:10:36;;;;;;;3.05;2.40;;;6.10;99.90;;;;;;5070206;28;20204;-77
2021/11/15 04:13:10;;;;;;;1.10;1.10;;;6.20;99.90;;;;;;5071537;28;20172;-78
2021/11/15 04:15:37;;;;;;;0.40;0.40;;;6.20;99.90;;;;;;5070215;28;20161;-78
2021/11/15 04:18:10;;;;;;;1.65;1.45;;;6.30;99.90;;;;;;5071243;28;20633;-77
2021/11/15 04:20:36;;;;;;;1.20;1.20;;;6.30;99.90;;;;;;5071319;28;20195;-77
2021/11/15 04:23:02;;;;;;;0.30;0.30;;;6.20;99.90;;;;;;5071476;28;20221;-77
2021/11/15 04:25:29;;;;;;;0.20;0.20;;;6.20;99.90;;;;;;5070130;28;20161;-77
2021/11/15 04:27:55;;;;;;;0.50;0.50;;;6.20;99.90;;;;;;5070011;28;20306;-77
2021/11/15 04:30:22;;;;;;;0.93;0.93;;;6.20;99.90;;;;;;5069386;28;20199;-77
2021/11/15 04:32:48;;;;;;;1.35;1.35;;;6.30;99.90;;;;;;5071263;28;20161;-77
2021/11/15 04:35:19;;;;;;;6.13;1.35;;;6.20;99.90;;;;;;5071139;28;20157;-78
2021/11/15 04:37:46;;;;;;;0.00;0.00;;;6.20;99.90;;;;;;5069763;28;20640;-78
2021/11/15 04:40:13;;;;;;;0.45;0.45;;;6.20;99.90;;;;;;5069617;28;20192;-78
2021/11/15 04:42:39;;;;;;;1.48;1.38;;;6.20;99.90;;;;;;5069498;28;20223;-79
2021/11/15 04:45:06;;;;;;;0.22;0.22;;;6.30;99.90;;;;;;5070989;28;20157;-78
2021/11/15 04:47:32;;;;;;;0.35;0.20;;;6.20;99.90;;;;;;5069664;28;20617;-78
2021/11/15 04:49:58;;;;;;;0.30;0.30;;;6.20;99.90;;;;;;5069463;28;20203;-78
2021/11/15 04:52:24;;;;;;;1.10;0.82;;;6.20;99.90;;;;;;5070925;28;20192;-78
2021/11/15 04:54:50;;;;;;;1.13;1.00;;;6.20;99.90;;;;;;5070757;28;20157;-78
2021/11/15 04:57:18;;;;;;;2.95;2.78;;;6.20;99.90;;;;;;5070631;28;20242;-78
2021/11/15 04:59:45;;;;;;;0.20;0.20;;;6.20;99.90;;;;;;5069456;28;20267;-78
2021/11/15 05:02:11;;;;;;;2.55;2.45;;;6.20;99.90;;;;;;5070562;28;20277;-76
2021/11/15 05:04:37;;;;;;;1.95;1.85;;;6.20;99.90;;;;;;5069232;28;20180;-76
2021/11/15 05:07:03;;;;;;;0.35;0.35;;;6.20;99.90;;;;;;5069093;28;20199;-76
2021/11/15 05:09:29;;;;;;;0.10;0.10;;;6.20;99.90;;;;;;5068701;28;20266;-76
2021/11/15 05:11:55;;;;;;;2.05;1.95;;;6.20;99.90;;;;;;5068865;28;20172;-76
2021/11/15 05:14:21;;;;;;;0.20;0.20;;;6.20;99.90;;;;;;5069114;28;20247;-76
2021/11/15 05:16:48;;;;;;;1.45;1.35;;;6.20;99.90;;;;;;5070348;28;20176;-76
2021/11/15 05:19:14;;;;;;;2.30;0.75;;;6.20;99.90;;;;;;5070026;28;20578;-76
2021/11/15 05:21:40;;;;;;;6.13;1.15;;;6.30;99.90;;;;;;5070032;28;20330;-78
2021/11/15 05:24:06;;;;;;;0.75;0.75;;;6.30;99.90;;;;;;5070307;28;20161;-79
2021/11/15 05:26:32;;;;;;;0.90;0.90;;;6.30;99.90;;;;;;5068773;28;20263;-79
2021/11/15 05:28:58;;;;;;;0.30;0.30;;;6.30;99.90;;;;;;5069250;28;20164;-79
2021/11/15 05:31:25;;;;;;;1.42;1.33;;;6.30;99.90;;;;;;5056194;28;20193;-77
2021/11/15 05:33:51;;;;;;;0.10;0.10;;;6.30;99.90;;;;;;5049583;28;20191;-77
2021/11/15 05:36:17;;;;;;;0.95;0.95;;;6.40;99.90;;;;;;5065293;28;20173;-77
2021/11/15 05:38:43;;;;;;;0.28;0.28;;;6.40;99.90;;;;;;5063580;28;20226;-78
2021/11/15 05:41:09;;;;;;;0.47;0.47;;;6.40;99.90;;;;;;5069624;28;20557;-77
2021/11/15 05:43:35;;;;;;;0.17;0.17;;;6.30;99.90;;;;;;5069607;28;20196;-77
2021/11/15 05:46:01;;;;;;;0.00;0.00;;;6.30;99.90;;;;;;5068153;28;20169;-80
2021/11/15 05:48:27;;;;;;;0.20;0.20;;;6.30;99.90;;;;;;5068135;28;20198;-78
2021/11/15 05:50:53;;;;;;;0.65;0.65;;;6.40;99.90;;;;;;5068148;28;20189;-78
2021/11/15 05:53:19;;;;;;;2.63;1.85;;;6.30;99.90;;;;;;5060900;28;20196;-78
2021/11/15 05:55:45;;;;;;;0.52;0.52;;;6.30;99.90;;;;;;5063933;28;20212;-78
2021/11/15 05:58:11;;;;;;;0.10;0.10;;;6.40;99.90;;;;;;5052393;28;20173;-78
2021/11/15 06:00:38;;;;;;;0.30;0.30;;;6.30;99.90;;;;;;5049822;28;20292;-78
2021/11/15 06:03:04;;;;;;;0.88;0.88;;;6.30;99.90;;;;;;5067932;28;20212;-78
2021/11/15 06:05:30;;;;;;;0.20;0.20;;;6.30;99.90;;;;;;5069105;28;20160;-78
2021/11/15 06:07:56;;;;;;;2.45;1.95;;;6.30;99.90;;;;;;5069222;28;20535;-80
2021/11/15 06:10:23;;;;;;;0.22;0.22;;;6.40;99.90;;;;;;5055737;28;20180;-77
2021/11/15 06:12:51;;;;;;;0.20;0.20;;;6.30;99.90;;;;;;5048918;28;20188;-77
2021/11/15 06:15:18;;;;;;;0.00;0.00;;;6.30;99.90;;;;;;5049012;28;20180;-77
2021/11/15 06:17:44;;;;;;;1.27;1.17;;;6.30;99.90;;;;;;5049223;28;20619;-80
2021/11/15 06:20:12;;;;;;;2.90;1.35;;;6.30;99.90;;;;;;5047874;28;20169;-80
2021/11/15 06:22:38;;;;;;;0.32;0.32;;;6.40;99.90;;;;;;5047587;28;20224;-80
2021/11/15 06:25:06;;;;;;;0.30;0.30;;;6.60;99.90;;;;;;5048795;28;20169;-79
2021/11/15 06:27:32;;;;;;;0.10;0.10;;;6.60;99.90;;;;;;5061473;28;20168;-78
2021/11/15 06:29:58;;;;;;;0.20;0.20;;;6.60;99.90;;;;;;5068842;28;20247;-79
2021/11/15 06:32:24;;;;;;;0.10;0.10;;;6.60;99.90;;;;;;5067516;28;20211;-80
2021/11/15 06:34:50;;;;;;;0.20;0.20;;;6.60;99.90;;;;;;5068838;28;20165;-80
2021/11/15 06:37:16;;;;;;;0.15;0.15;;;6.60;99.90;;;;;;5067757;28;20199;-80
2021/11/15 06:39:42;;;;;;;0.57;0.57;;;6.60;99.90;;;;;;5067413;28;20169;-80
2021/11/15 06:42:08;;;;;;;0.30;0.30;;;6.60;99.90;;;;;;5066422;28;20680;-79
2021/11/15 06:44:34;;;;;;;0.10;0.10;;;6.70;99.90;;;;;;5067766;28;20177;-79
2021/11/15 06:47:01;;;;;;;0.43;0.43;;;6.70;99.90;;;;;;5068897;28;20156;-81
2021/11/15 06:49:28;;;;;;;0.20;0.20;;;6.90;99.90;;;;;;5068210;28;20568;-80
2021/11/15 06:51:54;;;;;;;0.10;0.10;;;6.90;99.90;;;;;;5068951;28;20827;-79
2021/11/15 06:54:20;;;;;;;2.20;1.60;;;6.90;99.90;;;;;;5059307;28;20185;-80
2021/11/15 06:56:46;;;;;;;0.43;0.43;;;6.90;99.90;;;;;;5051570;28;20308;-79
2021/11/15 06:59:12;;;;;;;0.35;0.35;;;7.00;99.90;;;;;;5068381;28;20199;-79
2021/11/15 07:01:38;;;;;;;0.43;0.43;;;7.00;99.90;;;;;;5068572;28;20211;-79
2021/11/15 07:04:07;;;;;;;0.70;0.70;;;7.00;99.90;;;;;;5068887;28;20156;-79
2021/11/15 07:06:33;;;;;;;0.73;0.73;;;7.00;99.90;;;;;;5067494;28;20184;-79
2021/11/15 07:08:59;;;;;;;3.72;1.10;;;7.00;99.90;;;;;;5068978;28;20168;-80
2021/11/15 07:11:25;;;;;;;1.08;1.05;;;7.00;99.90;;;;;;5067051;28;20256;-79
2021/11/15 07:13:52;;;;;;;0.40;0.40;;;7.10;99.90;;;;;;5067476;28;20204;-78
2021/11/15 07:16:18;;;;;;;0.90;0.90;;;7.30;99.90;;;;;;5068717;28;20408;-79
2021/11/15 07:18:46;;;;;;;0.45;0.45;;;7.50;99.90;;;;;;5067283;28;20187;-80
2021/11/15 07:21:12;;;;;;;19.20;1.35;;;7.60;99.90;;;;;;5067567;28;20219;-79
2021/11/15 07:23:38;;;;;;;0.65;0.55;;;7.70;99.90;;;;;;5067629;28;20212;-79
2021/11/15 07:26:04;;;;;;;0.32;0.32;;;7.90;99.90;;;;;;5068881;28;20157;-79
2021/11/15 07:28:31;;;;;;;0.20;0.20;;;8.10;99.90;;;;;;5069093;28;20161;-80
2021/11/15 07:30:57;;;;;;;1.85;1.75;;;8.20;99.90;;;;;;5068620;28;20212;-80
2021/11/15 07:33:25;;;;;;;0.45;0.45;;;8.20;99.90;;;;;;5068568;28;20230;-81
2021/11/15 07:35:51;;;;;;;8.10;1.40;;;8.20;99.90;;;;;;5067096;28;20630;-79
2021/11/15 07:38:18;;;;;;;0.70;0.70;;;8.20;99.90;;;;;;5068097;28;20169;-81
2021/11/15 07:40:45;;;;;;;0.10;0.10;;;8.20;99.90;;;;;;5066963;28;20279;-81
2021/11/15 07:43:11;;;;;;;1.55;1.45;;;8.20;99.90;;;;;;5066883;28;20207;-80
2021/11/15 07:45:37;;;;;;;0.85;0.85;;;8.00;99.90;;;;;;5068217;28;20184;-79
2021/11/15 07:48:03;;;;;;;0.20;0.20;;;7.80;99.90;;;;;;5066711;28;20173;-79
2021/11/15 07:50:29;;;;;;;0.35;0.35;;;7.60;99.90;;;;;;5068183;28;20157;-80
2021/11/15 07:52:55;;;;;;;0.65;0.65;;;7.50;99.90;;;;;;5070533;28;20194;-80
2021/11/15 07:55:21;;;;;;;2.20;0.95;;;7.50;99.90;;;;;;5070585;28;20222;-81
2021/11/15 07:57:47;;;;;;;1.00;1.00;;;7.70;99.90;;;;;;5069153;28;20208;-81
2021/11/15 08:00:19;;;;;;;0.28;0.28;;;8.00;99.90;;;;;;5051286;28;20173;-82
2021/11/15 08:02:46;;;;;;;1.45;0.35;;;8.20;99.90;;;;;;5071600;28;20215;-80
2021/11/15 08:05:14;;;;;;;0.13;0.13;;;8.10;99.90;;;;;;5070786;28;20185;-80
2021/11/15 08:07:40;;;;;;;2.55;1.45;;;7.80;99.90;;;;;;5070458;28;20218;-82
2021/11/15 08:10:08;;;;;;;1.75;1.33;;;7.70;99.90;;;;;;5071509;28;20161;-82
2021/11/15 08:12:40;;;;;;;0.20;0.20;;;7.90;99.90;;;;;;5071463;28;20193;-81
2021/11/15 08:15:09;;;;;;;0.98;0.85;;;7.90;99.90;;;;;;5069594;28;20181;-81
2021/11/15 08:17:40;;;;;;;0.05;0.05;;;7.90;99.90;;;;;;5069942;28;20589;-81
2021/11/15 08:20:10;;;;;;;0.30;0.30;;;7.60;99.90;;;;;;5070091;28;20169;-80
2021/11/15 08:22:36;;;;;;;0.15;0.15;;;7.70;99.90;;;;;;5069650;28;20212;-80
2021/11/15 08:25:38;;;;;;;3.53;2.00;;;7.90;99.90;;;;;;5071174;28;20157;-79
2021/11/15 08:28:04;;;;;;;3.35;3.15;;;7.90;99.90;;;;;;5067877;28;20188;-79
2021/11/15 08:30:31;;;;;;;0.32;0.32;;;7.90;99.90;;;;;;5069894;28;20200;-79
2021/11/15 08:32:58;;;;;;;1.38;1.08;;;8.10;99.90;;;;;;5071045;28;20168;-80
2021/11/15 08:35:25;;;;;;;0.08;0.08;;;8.00;99.90;;;;;;5071020;28;20172;-79
2021/11/15 08:38:15;;;;;;;0.17;0.17;;;7.90;99.90;;;;;;5069771;28;20228;-79
2021/11/15 08:40:43;;;;;;;1.13;1.10;;;7.70;99.90;;;;;;5069665;28;20609;-79
2021/11/15 08:43:09;;;;;;;1.80;1.70;;;7.60;99.90;;;;;;5069418;28;20189;-80
2021/11/15 08:45:36;;;;;;;1.48;0.73;;;7.60;99.90;;;;;;5069436;28;20173;-80
2021/11/15 08:48:03;;;;;;;1.15;1.15;;;7.60;99.90;;;;;;5069272;28;20161;-79
2021/11/15 08:50:30;;;;;;;0.98;0.98;;;7.60;99.90;;;;;;5070707;28;20208;-80
2021/11/15 08:52:56;;;;;;;1.65;1.08;;;7.70;99.90;;;;;;5069712;28;20203;-79
2021/11/15 08:55:23;;;;;;;0.10;0.10;;;7.70;99.90;;;;;;5057608;28;20291;-80
2021/11/15 08:57:48;;;;;;;1.00;1.00;;;7.90;99.90;;;;;;5058090;28;20172;-79
2021/11/15 09:00:14;;;;;;;0.52;0.52;;;8.20;99.90;;;;;;5060543;28;20203;-80
2021/11/15 09:02:40;;;;;;;0.22;0.22;;;8.30;99.90;;;;;;5056524;28;20224;-80
2021/11/15 09:05:06;;;;;;;0.38;0.38;;;8.20;99.90;;;;;;5057277;28;20168;-79
2021/11/15 09:07:37;;;;;;;0.30;0.30;;;8.10;99.90;;;;;;5058792;28;20161;-79
2021/11/15 09:10:08;;;;;;;0.35;0.35;;;8.30;99.90;;;;;;5058556;28;20192;-79
2021/11/15 09:12:35;;;;;;;0.88;0.88;;;8.50;99.90;;;;;;5057226;28;20189;-79
2021/11/15 09:15:03;;;;;;;1.33;1.23;;;8.30;99.90;;;;;;5060081;28;20165;-80
2021/11/15 09:17:29;;;;;;;0.10;0.10;;;8.50;99.90;;;;;;5057830;28;20170;-79
2021/11/15 09:19:56;;;;;;;2.63;1.85;;;8.50;99.90;;;;;;5056617;28;21137;-79
2021/11/15 09:22:22;;;;;;;0.10;0.10;;;8.40;99.90;;;;;;5060923;28;20252;-79
2021/11/15 09:24:48;;;;;;;0.73;0.73;;;8.40;99.90;;;;;;5057835;28;20172;-79
2021/11/15 09:27:15;;;;;;;0.10;0.10;;;8.50;99.90;;;;;;5059935;28;20161;-80
2021/11/15 09:29:47;;;;;;;0.60;0.60;;;8.50;99.90;;;;;;5056700;28;20571;-80
2021/11/15 09:32:15;;;;;;;1.67;1.58;;;8.20;99.90;;;;;;5059499;28;20172;-79
2021/11/15 09:34:42;;;;;;;2.70;2.50;;;8.10;99.90;;;;;;5057685;28;20168;-79
2021/11/15 09:37:14;;;;;;;1.67;1.55;;;8.00;99.90;;;;;;5057343;28;20160;-80
2021/11/15 09:39:42;;;;;;;0.17;0.17;;;7.90;99.90;;;;;;5058728;28;20200;-79
2021/11/15 09:42:09;;;;;;;1.70;1.60;;;7.80;99.90;;;;;;5058522;28;20204;-79
2021/11/15 09:44:35;;;;;;;1.38;1.33;;;7.70;99.90;;;;;;5065214;28;20169;-79
2021/11/15 09:47:03;;;;;;;4.38;1.40;;;7.70;99.90;;;;;;5068374;28;20211;-79
2021/11/15 09:49:29;;;;;;;0.17;0.17;;;7.70;99.90;;;;;;5068386;28;20196;-80
2021/11/15 09:51:55;;;;;;;1.67;1.48;;;7.70;99.90;;;;;;5068189;28;20186;-75
2021/11/15 09:54:22;;;;;;;0.20;0.20;;;7.70;99.90;;;;;;5069402;28;20156;-76
2021/11/15 09:56:49;;;;;;;1.85;1.25;;;7.80;99.90;;;;;;5068055;28;20220;-75
2021/11/15 09:59:16;;;;;;;0.10;0.10;;;7.90;99.90;;;;;;5059358;28;20560;-74
2021/11/15 10:01:48;;;;;;;5.55;1.85;;;7.80;99.90;;;;;;5060327;28;20181;-75
2021/11/15 10:04:17;;;;;;;4.85;2.08;;;7.80;99.90;;;;;;5067982;28;20637;-75
2021/11/15 10:06:56;;;;;;;0.45;0.45;;;7.90;99.90;;;;;;5057645;28;20331;-75
2021/11/15 10:09:29;;;;;;;0.52;0.52;;;8.00;99.90;;;;;;5047741;28;20227;-75
2021/11/15 10:11:55;;;;;;;0.57;0.57;;;8.10;99.90;;;;;;5051685;28;20340;-75
2021/11/15 10:14:21;;;;;;;1.42;1.38;;;8.20;99.90;;;;;;5048933;28;20193;-75
2021/11/15 10:17:02;;;;;;;0.73;0.73;;;8.50;99.90;;;;;;5047817;28;20165;-74
2021/11/15 10:19:30;;;;;;;0.43;0.43;;;8.60;99.90;;;;;;5047954;28;20187;-75
2021/11/15 10:22:01;;;;;;;0.57;0.57;;;8.70;99.90;;;;;;5048297;28;20245;-74
2021/11/15 10:24:37;;;;;;;0.63;0.63;;;8.80;99.90;;;;;;5063527;28;20204;-74
2021/11/15 10:27:06;;;;;;;0.40;0.40;;;8.80;99.90;;;;;;5066988;28;20174;-75
2021/11/15 10:29:36;;;;;;;1.20;1.13;;;8.80;99.90;;;;;;5067479;28;20156;-73
2021/11/15 10:32:10;;;;;;;0.70;0.70;;;9.00;99.90;;;;;;5068870;28;20183;-74
2021/11/15 10:34:40;;;;;;;0.90;0.90;;;9.20;99.90;;;;;;5067622;28;20192;-74
2021/11/15 10:37:14;;;;;;;0.50;0.50;;;9.20;99.90;;;;;;5066946;28;20165;-74
2021/11/15 10:39:55;;;;;;;1.10;1.00;;;9.20;99.90;;;;;;5068558;28;20180;-74
2021/11/15 10:42:35;;;;;;;1.00;1.00;;;9.30;99.90;;;;;;5068548;28;20275;-74
2021/11/15 10:45:08;;;;;;;0.17;0.17;;;9.30;99.90;;;;;;5067024;28;20192;-75
2021/11/15 10:47:42;;;;;;;3.83;1.13;;;9.20;99.90;;;;;;5066836;28;20191;-75
2021/11/15 10:50:22;;;;;;;1.92;1.83;;;9.30;99.90;;;;;;5067267;28;20536;-74
2021/11/15 10:53:06;;;;;;;0.70;0.70;;;9.30;99.90;;;;;;5068660;28;20159;-74
2021/11/15 10:55:38;;;;;;;0.75;0.75;;;9.10;99.90;;;;;;5067052;28;20295;-74
2021/11/15 10:58:24;;;;;;;1.52;1.42;;;9.00;99.90;;;;;;5068048;28;20175;-73
2021/11/15 11:00:55;;;;;;;0.28;0.28;;;9.10;99.90;;;;;;5054201;28;20180;-73
2021/11/15 11:03:25;;;;;;;1.08;0.98;;;9.10;99.90;;;;;;5068459;28;20191;-74
2021/11/15 11:05:54;;;;;;;0.90;0.85;;;9.00;99.90;;;;;;5067738;28;20164;-74
2021/11/15 11:08:25;;;;;;;1.55;1.55;;;9.20;99.90;;;;;;5067781;28;20558;-74
2021/11/15 11:11:03;;;;;;;0.63;0.63;;;9.40;99.90;;;;;;5068439;28;20176;-74
2021/11/15 11:13:49;;;;;;;1.10;1.00;;;9.50;99.90;;;;;;5067102;28;20196;-74
2021/11/15 11:16:17;;;;;;;1.13;1.05;;;9.40;99.90;;;;;;5067056;28;20174;-75
2021/11/15 11:19:03;;;;;;;0.30;0.30;;;9.30;99.90;;;;;;5067794;28;20153;-75
2021/11/15 11:26:56;;;;;;;1.23;1.23;;;9.50;99.90;;;;;;5068812;28;20172;-74
2021/11/15 11:29:26;;;;;;;1.40;1.23;;;9.70;99.90;;;;;;5051872;28;20188;-74
2021/11/15 11:31:56;;;;;;;1.58;1.48;;;9.80;99.90;;;;;;5056709;28;20180;-74
2021/11/15 11:34:23;;;;;;;1.13;0.73;;;9.90;99.90;;;;;;5070553;28;20188;-74
2021/11/15 11:36:50;;;;;;;1.10;1.10;;;10.00;99.90;;;;;;5050837;28;20173;-74
2021/11/15 11:39:17;;;;;;;0.40;0.40;;;9.90;99.90;;;;;;5049867;28;20165;-74
2021/11/15 11:41:49;;;;;;;0.93;0.73;;;9.60;99.90;;;;;;5050946;28;20234;-74
2021/11/15 11:44:15;;;;;;;1.15;1.15;;;9.40;99.90;;;;;;5050304;28;20331;-74
2021/11/15 11:46:42;;;;;;;0.43;0.43;;;9.50;99.90;;;;;;5051588;28;20158;-73
2021/11/15 11:49:18;;;;;;;1.27;1.27;;;9.40;99.90;;;;;;5051555;28;20608;-74
2021/11/15 11:51:49;;;;;;;0.90;0.90;;;9.50;99.90;;;;;;5050091;28;20216;-80
2021/11/15 11:54:22;;;;;;;0.10;0.10;;;9.60;99.90;;;;;;5051700;28;20166;-80
2021/11/15 11:57:05;;;;;;;0.35;0.35;;;9.80;99.90;;;;;;5053132;28;20272;-80
2021/11/15 11:59:33;;;;;;;1.45;1.35;;;9.90;99.90;;;;;;5055843;28;20212;-79
2021/11/15 12:02:12;;;;;;;0.68;0.68;;;9.80;99.90;;;;;;5070138;28;20177;-80
2021/11/15 12:05:02;;;;;;;1.95;1.17;;;9.50;99.90;;;;;;5068423;28;20314;-79
2021/11/15 12:07:30;;;;;;;0.75;0.75;;;9.20;99.90;;;;;;5069915;28;20169;-79
2021/11/15 12:09:58;;;;;;;0.10;0.10;;;9.00;99.90;;;;;;5071509;28;20165;-80
2021/11/15 12:12:25;;;;;;;0.32;0.32;;;9.00;99.90;;;;;;5070434;28;20232;-79
2021/11/15 12:14:52;;;;;;;2.20;2.10;;;9.00;99.90;;;;;;5071044;28;20200;-77
2021/11/15 12:17:20;;;;;;;3.80;0.82;;;8.90;99.90;;;;;;5069914;28;20201;-79
2021/11/15 12:19:52;;;;;;;1.75;0.80;;;8.80;99.90;;;;;;5064163;28;20211;-74
2021/11/15 12:22:27;;;;;;;0.50;0.50;;;8.80;99.90;;;;;;5049992;28;20208;-74
2021/11/15 12:25:05;;;;;;;0.32;0.32;;;8.80;99.90;;;;;;5049828;28;20252;-74
2021/11/15 12:28:08;;;;;;;0.90;0.90;;;8.80;99.90;;;;;;5053180;28;20211;-74
2021/11/15 12:30:45;;;;;;;1.40;0.68;;;8.70;99.90;;;;;;5069580;28;20193;-74
2021/11/15 12:33:18;;;;;;;3.20;1.40;;;8.80;99.90;;;;;;5071423;28;20222;-79
2021/11/15 12:35:58;;;;;;;1.38;0.82;;;8.80;99.90;;;;;;5069724;28;20172;-79
2021/11/15 12:38:49;;;;;;;1.05;0.43;;;8.80;99.90;;;;;;5050738;28;20188;-77
2021/11/15 12:41:18;;;;;;;0.43;0.40;;;8.70;99.90;;;;;;5058765;28;20206;-79
2021/11/15 12:44:05;;;;;;;2.95;1.98;;;8.60;99.90;;;;;;5069559;28;20252;-79
2021/11/15 12:46:40;;;;;;;0.20;0.20;;;8.60;99.90;;;;;;5059361;28;20204;-79
2021/11/15 12:49:35;;;;;;;1.15;0.90;;;8.60;99.90;;;;;;5049599;28;20191;-81
2021/11/15 12:54:34;;;;;;;2.13;1.98;;;8.60;99.90;;;;;;5054421;28;20212;-78
2021/11/15 12:57:05;;;;;;;2.30;1.73;;;8.70;99.90;;;;;;5049495;28;20213;-79
2021/11/15 12:59:33;;;;;;;3.55;3.25;;;8.70;99.90;;;;;;5058037;28;20175;-79
2021/11/15 13:02:00;;;;;;;0.43;0.43;;;8.70;99.90;;;;;;5066736;28;20240;-79
2021/11/15 13:04:26;;;;;;;12.07;1.85;;;8.80;99.90;;;;;;5068948;28;20180;-79
2021/11/15 13:06:52;;;;;;;0.50;0.50;;;8.90;99.90;;;;;;5068838;28;20176;-79
2021/11/15 13:09:21;;;;;;;1.90;1.80;;;8.90;99.90;;;;;;5068305;28;20219;-79
2021/11/15 13:11:51;;;;;;;1.38;1.27;;;9.00;99.90;;;;;;5070137;28;20183;-79
2021/11/15 13:14:16;;;;;;;0.75;0.75;;;9.00;99.90;;;;;;5070191;28;20244;-79